sensor_id;sensor_type;location;lat;lon;timestamp;pressure;altitude;pressure_sealevel;temperature;humidity
21821;BME280;11073;48.586;12.066;2023-02-22T00:01:36;96432.59;;;7.67;62.00
21821;BME280;11073;48.586;12.066;2023-02-22T00:04:38;96423.56;;;7.61;62.08
21821;BME280;11073;48.586;12.066;2023-02-22T00:07:27;96421.97;;;7.54;62.07
21821;BME280;11073;48.586;12.066;2023-02-22T00:10:17;96421.38;;;7.45;62.32
21821;BME280;11073;48.586;12.066;2023-02-22T00:13:11;96432.00;;;7.40;62.47
21821;BME280;11073;48.586;12.066;2023-02-22T00:16:01;96429.59;;;7.32;62.63
21821;BME280;11073;48.586;12.066;2023-02-22T00:18:51;96426.25;;;7.30;62.26
21821;BME280;11073;48.586;12.066;2023-02-22T00:21:40;96425.22;;;7.31;62.36
21821;BME280;11073;48.586;12.066;2023-02-22T00:24:31;96417.53;;;7.34;62.45
21821;BME280;11073;48.586;12.066;2023-02-22T00:27:22;96417.75;;;7.33;62.43
21821;BME280;11073;48.586;12.066;2023-02-22T00:30:15;96415.66;;;7.35;62.39
21821;BME280;11073;48.586;12.066;2023-02-22T00:33:06;96414.28;;;7.26;62.43
21821;BME280;11073;48.586;12.066;2023-02-22T00:35:54;96412.88;;;7.16;62.48
21821;BME280;11073;48.586;12.066;2023-02-22T00:38:43;96413.56;;;7.12;62.43
21821;BME280;11073;48.586;12.066;2023-02-22T00:41:32;96418.38;;;7.03;62.29
21821;BME280;11073;48.586;12.066;2023-02-22T00:44:22;96411.13;;;7.04;62.51
21821;BME280;11073;48.586;12.066;2023-02-22T00:47:12;96408.22;;;7.05;62.45
21821;BME280;11073;48.586;12.066;2023-02-22T00:50:01;96400.00;;;6.94;62.42
21821;BME280;11073;48.586;12.066;2023-02-22T00:52:51;96397.53;;;6.92;62.50
21821;BME280;11073;48.586;12.066;2023-02-22T00:55:39;96396.94;;;6.90;62.68
21821;BME280;11073;48.586;12.066;2023-02-22T00:58:29;96402.03;;;6.98;62.89
21821;BME280;11073;48.586;12.066;2023-02-22T01:01:18;96395.06;;;6.90;62.62
21821;BME280;11073;48.586;12.066;2023-02-22T01:04:10;96391.16;;;6.80;62.67
21821;BME280;11073;48.586;12.066;2023-02-22T01:06:59;96388.50;;;6.73;62.63
21821;BME280;11073;48.586;12.066;2023-02-22T01:09:48;96386.03;;;6.72;62.64
21821;BME280;11073;48.586;12.066;2023-02-22T01:12:36;96385.22;;;6.71;62.65
21821;BME280;11073;48.586;12.066;2023-02-22T01:15:28;96385.59;;;6.81;62.60
21821;BME280;11073;48.586;12.066;2023-02-22T01:18:17;96384.81;;;6.74;62.46
21821;BME280;11073;48.586;12.066;2023-02-22T01:21:10;96384.03;;;6.67;62.55
21821;BME280;11073;48.586;12.066;2023-02-22T01:24:01;96382.56;;;6.64;62.52
21821;BME280;11073;48.586;12.066;2023-02-22T01:26:51;96374.34;;;6.59;62.74
21821;BME280;11073;48.586;12.066;2023-02-22T01:29:40;96374.13;;;6.61;63.00
21821;BME280;11073;48.586;12.066;2023-02-22T01:32:29;96370.38;;;6.62;63.09
21821;BME280;11073;48.586;12.066;2023-02-22T01:35:20;96367.06;;;6.67;63.27
21821;BME280;11073;48.586;12.066;2023-02-22T01:38:12;96374.88;;;6.75;63.25
21821;BME280;11073;48.586;12.066;2023-02-22T01:41:01;96364.97;;;6.69;63.31
21821;BME280;11073;48.586;12.066;2023-02-22T01:43:51;96372.47;;;6.60;62.85
21821;BME280;11073;48.586;12.066;2023-02-22T01:46:40;96374.78;;;6.50;62.83
21821;BME280;11073;48.586;12.066;2023-02-22T01:49:36;96369.19;;;6.51;63.00
21821;BME280;11073;48.586;12.066;2023-02-22T01:52:27;96372.72;;;6.52;63.03
21821;BME280;11073;48.586;12.066;2023-02-22T01:55:18;96363.84;;;6.45;63.10
21821;BME280;11073;48.586;12.066;2023-02-22T01:58:08;96361.38;;;6.43;63.25
21821;BME280;11073;48.586;12.066;2023-02-22T02:00:57;96360.50;;;6.49;63.29
21821;BME280;11073;48.586;12.066;2023-02-22T02:03:49;96354.72;;;6.52;63.39
21821;BME280;11073;48.586;12.066;2023-02-22T02:06:39;96349.34;;;6.52;63.37
21821;BME280;11073;48.586;12.066;2023-02-22T02:09:32;96348.91;;;6.55;63.46
21821;BME280;11073;48.586;12.066;2023-02-22T02:12:24;96333.25;;;6.39;63.53
21821;BME280;11073;48.586;12.066;2023-02-22T02:15:19;96340.09;;;6.35;63.78
21821;BME280;11073;48.586;12.066;2023-02-22T02:18:09;96339.50;;;6.33;63.65
21821;BME280;11073;48.586;12.066;2023-02-22T02:21:27;96342.78;;;6.35;63.65
21821;BME280;11073;48.586;12.066;2023-02-22T02:31:57;96330.38;;;6.34;63.28
21821;BME280;11073;48.586;12.066;2023-02-22T02:34:49;96330.84;;;6.31;63.42
21821;BME280;11073;48.586;12.066;2023-02-22T02:37:50;96331.03;;;6.23;63.15
21821;BME280;11073;48.586;12.066;2023-02-22T02:40:47;96320.94;;;6.25;63.26
21821;BME280;11073;48.586;12.066;2023-02-22T02:43:41;96322.63;;;6.13;63.17
21821;BME280;11073;48.586;12.066;2023-02-22T02:46:37;96315.03;;;6.03;63.51
21821;BME280;11073;48.586;12.066;2023-02-22T02:49:34;96310.31;;;5.92;63.38
21821;BME280;11073;48.586;12.066;2023-02-22T02:52:26;96311.13;;;5.86;63.46
21821;BME280;11073;48.586;12.066;2023-02-22T02:55:17;96309.88;;;5.88;63.81
21821;BME280;11073;48.586;12.066;2023-02-22T02:58:07;96306.78;;;5.91;63.68
21821;BME280;11073;48.586;12.066;2023-02-22T03:00:59;96302.88;;;5.80;63.68
21821;BME280;11073;48.586;12.066;2023-02-22T03:04:10;96309.91;;;5.75;63.77
21821;BME280;11073;48.586;12.066;2023-02-22T03:07:17;96300.81;;;5.76;63.81
21821;BME280;11073;48.586;12.066;2023-02-22T03:10:22;96300.19;;;5.80;63.86
21821;BME280;11073;48.586;12.066;2023-02-22T03:13:18;96296.06;;;5.78;63.92
21821;BME280;11073;48.586;12.066;2023-02-22T03:16:18;96294.59;;;5.82;63.90
21821;BME280;11073;48.586;12.066;2023-02-22T03:19:11;96280.59;;;5.73;63.72
21821;BME280;11073;48.586;12.066;2023-02-22T03:22:10;96289.25;;;5.75;64.04
21821;BME280;11073;48.586;12.066;2023-02-22T03:25:04;96290.31;;;5.68;64.03
21821;BME280;11073;48.586;12.066;2023-02-22T03:27:59;96284.53;;;5.64;64.21
21821;BME280;11073;48.586;12.066;2023-02-22T03:30:53;96282.06;;;5.56;64.58
21821;BME280;11073;48.586;12.066;2023-02-22T03:33:47;96283.13;;;5.48;64.36
21821;BME280;11073;48.586;12.066;2023-02-22T03:36:41;96285.19;;;5.46;64.49
21821;BME280;11073;48.586;12.066;2023-02-22T03:39:36;96283.75;;;5.50;64.53
21821;BME280;11073;48.586;12.066;2023-02-22T03:42:29;96274.25;;;5.48;64.30
21821;BME280;11073;48.586;12.066;2023-02-22T03:45:21;96286.00;;;5.60;64.36
21821;BME280;11073;48.586;12.066;2023-02-22T03:48:17;96278.53;;;5.62;64.31
21821;BME280;11073;48.586;12.066;2023-02-22T03:51:09;96276.31;;;5.52;64.19
21821;BME280;11073;48.586;12.066;2023-02-22T03:53:58;96281.91;;;5.44;64.32
21821;BME280;11073;48.586;12.066;2023-02-22T03:56:57;96276.94;;;5.48;64.43
21821;BME280;11073;48.586;12.066;2023-02-22T03:59:50;96283.94;;;5.49;64.35
21821;BME280;11073;48.586;12.066;2023-02-22T04:02:40;96285.63;;;5.43;64.29
21821;BME280;11073;48.586;12.066;2023-02-22T04:05:34;96288.50;;;5.42;64.18
21821;BME280;11073;48.586;12.066;2023-02-22T04:08:23;96286.25;;;5.45;64.30
21821;BME280;11073;48.586;12.066;2023-02-22T04:11:14;96275.72;;;5.50;64.36
21821;BME280;11073;48.586;12.066;2023-02-22T04:14:05;96286.00;;;5.53;64.28
21821;BME280;11073;48.586;12.066;2023-02-22T04:16:54;96280.84;;;5.59;64.31
21821;BME280;11073;48.586;12.066;2023-02-22T04:19:43;96276.91;;;5.61;64.40
21821;BME280;11073;48.586;12.066;2023-02-22T04:22:33;96279.97;;;5.65;64.19
21821;BME280;11073;48.586;12.066;2023-02-22T04:25:24;96288.47;;;5.62;64.32
21821;BME280;11073;48.586;12.066;2023-02-22T04:28:13;96287.44;;;5.63;63.89
21821;BME280;11073;48.586;12.066;2023-02-22T04:31:10;96284.34;;;5.59;63.80
21821;BME280;11073;48.586;12.066;2023-02-22T04:34:00;96285.19;;;5.53;63.93
21821;BME280;11073;48.586;12.066;2023-02-22T04:36:53;96279.00;;;5.52;63.93
21821;BME280;11073;48.586;12.066;2023-02-22T04:39:43;96277.75;;;5.42;63.94
21821;BME280;11073;48.586;12.066;2023-02-22T04:42:32;96283.13;;;5.42;64.03
21821;BME280;11073;48.586;12.066;2023-02-22T04:45:21;96276.72;;;5.43;64.14
21821;BME280;11073;48.586;12.066;2023-02-22T04:48:12;96278.19;;;5.45;64.07
21821;BME280;11073;48.586;12.066;2023-02-22T04:51:01;96279.63;;;5.41;63.91
21821;BME280;11073;48.586;12.066;2023-02-22T04:53:52;96276.94;;;5.35;63.91
21821;BME280;11073;48.586;12.066;2023-02-22T04:56:41;96271.41;;;5.30;64.03
21821;BME280;11073;48.586;12.066;2023-02-22T04:59:30;96270.59;;;5.22;63.58
21821;BME280;11073;48.586;12.066;2023-02-22T05:02:20;96277.19;;;5.26;63.99
21821;BME280;11073;48.586;12.066;2023-02-22T05:05:12;96274.50;;;5.26;63.76
21821;BME280;11073;48.586;12.066;2023-02-22T05:08:01;96268.72;;;5.30;63.73
21821;BME280;11073;48.586;12.066;2023-02-22T05:10:49;96260.84;;;5.28;63.69
21821;BME280;11073;48.586;12.066;2023-02-22T05:13:39;96268.53;;;5.24;63.78
21821;BME280;11073;48.586;12.066;2023-02-22T05:16:29;96269.78;;;5.22;63.95
21821;BME280;11073;48.586;12.066;2023-02-22T05:19:18;96263.75;;;5.20;63.96
21821;BME280;11073;48.586;12.066;2023-02-22T05:22:08;96267.09;;;5.22;64.09
21821;BME280;11073;48.586;12.066;2023-02-22T05:24:57;96271.19;;;5.24;64.15
21821;BME280;11073;48.586;12.066;2023-02-22T05:27:50;96268.31;;;5.19;64.08
21821;BME280;11073;48.586;12.066;2023-02-22T05:30:41;96262.72;;;5.21;64.37
21821;BME280;11073;48.586;12.066;2023-02-22T05:33:30;96264.56;;;5.27;64.60
21821;BME280;11073;48.586;12.066;2023-02-22T05:36:19;96257.78;;;5.24;64.77
21821;BME280;11073;48.586;12.066;2023-02-22T05:39:11;96258.59;;;5.25;65.05
21821;BME280;11073;48.586;12.066;2023-02-22T05:42:00;96254.72;;;5.14;65.13
21821;BME280;11073;48.586;12.066;2023-02-22T05:44:49;96255.13;;;5.11;65.31
21821;BME280;11073;48.586;12.066;2023-02-22T05:47:38;96254.72;;;5.08;65.21
21821;BME280;11073;48.586;12.066;2023-02-22T05:50:28;96247.88;;;5.05;65.08
21821;BME280;11073;48.586;12.066;2023-02-22T05:53:17;96245.66;;;4.95;64.92
21821;BME280;11073;48.586;12.066;2023-02-22T05:56:08;96226.47;;;4.79;64.93
21821;BME280;11073;48.586;12.066;2023-02-22T05:58:57;96257.41;;;4.94;64.94
21821;BME280;11073;48.586;12.066;2023-02-22T06:01:46;96255.94;;;4.92;65.06
21821;BME280;11073;48.586;12.066;2023-02-22T06:04:35;96256.38;;;4.95;65.04
21821;BME280;11073;48.586;12.066;2023-02-22T06:07:24;96249.75;;;4.91;65.09
21821;BME280;11073;48.586;12.066;2023-02-22T06:10:14;96249.38;;;4.88;65.23
21821;BME280;11073;48.586;12.066;2023-02-22T06:13:05;96255.13;;;4.85;65.41
21821;BME280;11073;48.586;12.066;2023-02-22T06:15:54;96251.84;;;4.89;65.36
21821;BME280;11073;48.586;12.066;2023-02-22T06:18:43;96252.66;;;4.96;65.66
21821;BME280;11073;48.586;12.066;2023-02-22T06:21:32;96258.03;;;5.03;65.71
21821;BME280;11073;48.586;12.066;2023-02-22T06:24:22;96245.22;;;4.98;65.70
21821;BME280;11073;48.586;12.066;2023-02-22T06:27:11;96254.91;;;4.99;65.77
21821;BME280;11073;48.586;12.066;2023-02-22T06:30:02;96258.44;;;4.93;65.78
21821;BME280;11073;48.586;12.066;2023-02-22T06:32:51;96262.56;;;4.89;66.03
21821;BME280;11073;48.586;12.066;2023-02-22T06:35:40;96264.84;;;4.79;65.88
21821;BME280;11073;48.586;12.066;2023-02-22T06:38:29;96259.28;;;4.74;65.92
21821;BME280;11073;48.586;12.066;2023-02-22T06:41:17;96266.28;;;4.82;66.02
21821;BME280;11073;48.586;12.066;2023-02-22T06:44:07;96278.25;;;4.86;65.94
21821;BME280;11073;48.586;12.066;2023-02-22T06:46:58;96272.25;;;4.90;66.14
21821;BME280;11073;48.586;12.066;2023-02-22T06:49:51;96274.13;;;4.83;66.24
21821;BME280;11073;48.586;12.066;2023-02-22T06:52:41;96264.63;;;4.74;66.14
21821;BME280;11073;48.586;12.066;2023-02-22T06:55:32;96277.63;;;4.84;66.13
21821;BME280;11073;48.586;12.066;2023-02-22T06:58:22;96282.38;;;4.88;66.02
21821;BME280;11073;48.586;12.066;2023-02-22T07:01:11;96282.16;;;4.96;66.05
21821;BME280;11073;48.586;12.066;2023-02-22T07:04:02;96283.00;;;5.04;66.13
21821;BME280;11073;48.586;12.066;2023-02-22T07:06:51;96280.91;;;4.99;66.15
21821;BME280;11073;48.586;12.066;2023-02-22T07:09:40;96276.41;;;4.93;66.21
21821;BME280;11073;48.586;12.066;2023-02-22T07:12:31;96278.88;;;5.01;66.44
21821;BME280;11073;48.586;12.066;2023-02-22T07:15:22;96272.25;;;5.04;66.37
21821;BME280;11073;48.586;12.066;2023-02-22T07:18:11;96278.06;;;5.01;66.09
21821;BME280;11073;48.586;12.066;2023-02-22T07:21:03;96279.28;;;4.98;66.03
21821;BME280;11073;48.586;12.066;2023-02-22T07:23:53;96275.75;;;4.97;66.04
21821;BME280;11073;48.586;12.066;2023-02-22T07:26:43;96273.91;;;4.98;66.09
21821;BME280;11073;48.586;12.066;2023-02-22T07:29:32;96278.03;;;5.07;65.99
21821;BME280;11073;48.586;12.066;2023-02-22T07:32:22;96275.31;;;5.20;65.95
21821;BME280;11073;48.586;12.066;2023-02-22T07:35:16;96274.28;;;5.28;65.72
21821;BME280;11073;48.586;12.066;2023-02-22T07:38:07;96263.38;;;5.23;65.73
21821;BME280;11073;48.586;12.066;2023-02-22T07:40:57;96269.56;;;5.30;65.87
21821;BME280;11073;48.586;12.066;2023-02-22T07:43:46;96271.81;;;5.33;66.14
21821;BME280;11073;48.586;12.066;2023-02-22T07:46:35;96267.69;;;5.37;66.34
21821;BME280;11073;48.586;12.066;2023-02-22T07:49:24;96264.72;;;5.59;67.43
21821;BME280;11073;48.586;12.066;2023-02-22T07:52:13;96267.78;;;5.69;66.82
21821;BME280;11073;48.586;12.066;2023-02-22T07:55:06;96271.91;;;5.71;66.74
21821;BME280;11073;48.586;12.066;2023-02-22T07:57:57;96266.34;;;5.73;66.70
21821;BME280;11073;48.586;12.066;2023-02-22T08:00:47;96271.72;;;5.73;66.70
21821;BME280;11073;48.586;12.066;2023-02-22T08:03:36;96238.25;;;5.62;66.60
21821;BME280;11073;48.586;12.066;2023-02-22T08:06:25;96266.91;;;5.88;66.98
21821;BME280;11073;48.586;12.066;2023-02-22T08:09:15;96264.00;;;5.96;66.97
21821;BME280;11073;48.586;12.066;2023-02-22T08:12:06;96265.00;;;6.02;67.00
21821;BME280;11073;48.586;12.066;2023-02-22T08:14:55;96264.13;;;6.08;67.10
21821;BME280;11073;48.586;12.066;2023-02-22T08:17:44;96266.78;;;6.15;67.43
21821;BME280;11073;48.586;12.066;2023-02-22T08:20:34;96261.16;;;6.23;67.49
21821;BME280;11073;48.586;12.066;2023-02-22T08:23:25;96256.78;;;6.28;67.69
21821;BME280;11073;48.586;12.066;2023-02-22T08:26:14;96258.63;;;6.34;67.76
21821;BME280;11073;48.586;12.066;2023-02-22T08:29:06;96254.84;;;6.42;67.82
21821;BME280;11073;48.586;12.066;2023-02-22T08:31:56;96257.66;;;6.54;68.04
21821;BME280;11073;48.586;12.066;2023-02-22T08:34:46;96251.56;;;6.65;68.43
21821;BME280;11073;48.586;12.066;2023-02-22T08:37:35;96251.97;;;6.69;68.80
21821;BME280;11073;48.586;12.066;2023-02-22T08:40:26;96256.44;;;6.81;68.81
21821;BME280;11073;48.586;12.066;2023-02-22T08:43:16;96262.69;;;7.00;69.02
21821;BME280;11073;48.586;12.066;2023-02-22T08:46:06;96255.72;;;7.17;69.12
21821;BME280;11073;48.586;12.066;2023-02-22T08:48:56;96254.91;;;7.35;69.39
21821;BME280;11073;48.586;12.066;2023-02-22T08:51:45;96253.88;;;7.55;69.56
21821;BME280;11073;48.586;12.066;2023-02-22T08:54:35;96253.56;;;7.81;69.56
21821;BME280;11073;48.586;12.066;2023-02-22T08:57:24;96255.66;;;7.97;69.71
21821;BME280;11073;48.586;12.066;2023-02-22T09:00:14;96255.38;;;8.17;69.81
21821;BME280;11073;48.586;12.066;2023-02-22T09:03:06;96247.31;;;8.36;69.98
21821;BME280;11073;48.586;12.066;2023-02-22T09:05:56;96242.34;;;8.63;69.89
21821;BME280;11073;48.586;12.066;2023-02-22T09:08:46;96249.19;;;8.89;69.71
21821;BME280;11073;48.586;12.066;2023-02-22T09:11:35;96241.38;;;8.99;69.41
21821;BME280;11073;48.586;12.066;2023-02-22T09:14:24;96252.75;;;9.24;69.41
21821;BME280;11073;48.586;12.066;2023-02-22T09:17:13;96251.84;;;9.42;69.19
21821;BME280;11073;48.586;12.066;2023-02-22T09:20:05;96250.97;;;9.65;69.10
21821;BME280;11073;48.586;12.066;2023-02-22T09:22:55;96243.06;;;9.87;68.63
21821;BME280;11073;48.586;12.066;2023-02-22T09:25:45;96242.44;;;9.97;68.40
21821;BME280;11073;48.586;12.066;2023-02-22T09:28:34;96248.09;;;10.07;68.33
21821;BME280;11073;48.586;12.066;2023-02-22T09:31:23;96249.72;;;10.08;67.90
21821;BME280;11073;48.586;12.066;2023-02-22T09:34:12;96244.50;;;10.18;68.06
21821;BME280;11073;48.586;12.066;2023-02-22T09:37:04;96242.50;;;10.54;67.73
21821;BME280;11073;48.586;12.066;2023-02-22T09:39:55;96225.00;;;10.73;67.56
21821;BME280;11073;48.586;12.066;2023-02-22T09:42:48;96236.66;;;10.90;66.76
21821;BME280;11073;48.586;12.066;2023-02-22T09:46:01;96237.41;;;11.02;66.73
21821;BME280;11073;48.586;12.066;2023-02-22T09:49:00;96227.63;;;11.18;66.10
21821;BME280;11073;48.586;12.066;2023-02-22T09:51:57;96233.53;;;11.32;65.81
21821;BME280;11073;48.586;12.066;2023-02-22T09:54:54;96238.81;;;11.60;65.46
21821;BME280;11073;48.586;12.066;2023-02-22T09:57:46;96231.81;;;11.81;64.92
21821;BME280;11073;48.586;12.066;2023-02-22T10:00:36;96228.28;;;11.81;64.39
21821;BME280;11073;48.586;12.066;2023-02-22T10:03:44;96232.50;;;11.94;63.90
21821;BME280;11073;48.586;12.066;2023-02-22T10:06:36;96228.72;;;11.95;63.53
21821;BME280;11073;48.586;12.066;2023-02-22T10:09:28;96225.13;;;12.11;63.38
21821;BME280;11073;48.586;12.066;2023-02-22T10:12:28;96232.00;;;12.19;63.28
21821;BME280;11073;48.586;12.066;2023-02-22T10:15:29;96226.50;;;12.35;62.92
21821;BME280;11073;48.586;12.066;2023-02-22T10:18:41;96210.06;;;12.47;62.48
21821;BME280;11073;48.586;12.066;2023-02-22T10:21:52;96225.97;;;12.92;62.06
21821;BME280;11073;48.586;12.066;2023-02-22T10:24:53;96218.91;;;12.91;61.43
21821;BME280;11073;48.586;12.066;2023-02-22T10:27:51;96214.56;;;12.95;60.95
21821;BME280;11073;48.586;12.066;2023-02-22T10:30:48;96190.78;;;13.08;60.30
21821;BME280;11073;48.586;12.066;2023-02-22T10:33:55;96195.34;;;13.34;60.20
21821;BME280;11073;48.586;12.066;2023-02-22T10:36:48;96204.47;;;13.60;59.35
21821;BME280;11073;48.586;12.066;2023-02-22T10:39:39;96193.22;;;13.94;59.33
21821;BME280;11073;48.586;12.066;2023-02-22T10:42:30;96205.34;;;14.28;58.64
21821;BME280;11073;48.586;12.066;2023-02-22T10:45:24;96197.06;;;13.98;57.55
21821;BME280;11073;48.586;12.066;2023-02-22T10:48:15;96197.78;;;13.83;57.69
21821;BME280;11073;48.586;12.066;2023-02-22T10:51:07;96193.81;;;14.11;57.83
21821;BME280;11073;48.586;12.066;2023-02-22T10:54:05;96189.00;;;14.28;57.29
21821;BME280;11073;48.586;12.066;2023-02-22T10:57:03;96186.88;;;14.46;56.89
21821;BME280;11073;48.586;12.066;2023-02-22T10:59:52;96186.94;;;14.81;56.50
21821;BME280;11073;48.586;12.066;2023-02-22T11:02:53;96188.84;;;15.06;56.12
21821;BME280;11073;48.586;12.066;2023-02-22T11:05:44;96184.50;;;15.10;55.68
21821;BME280;11073;48.586;12.066;2023-02-22T11:08:33;96182.53;;;15.47;55.17
21821;BME280;11073;48.586;12.066;2023-02-22T11:11:25;96182.50;;;15.57;54.44
21821;BME280;11073;48.586;12.066;2023-02-22T11:14:25;96175.19;;;15.52;53.77
21821;BME280;11073;48.586;12.066;2023-02-22T11:17:18;96175.19;;;15.42;53.98
21821;BME280;11073;48.586;12.066;2023-02-22T11:20:18;96167.78;;;15.73;53.30
21821;BME280;11073;48.586;12.066;2023-02-22T11:23:11;96160.06;;;15.95;53.27
21821;BME280;11073;48.586;12.066;2023-02-22T11:26:06;96160.50;;;16.18;52.58
21821;BME280;11073;48.586;12.066;2023-02-22T11:28:56;96145.84;;;16.53;52.80
21821;BME280;11073;48.586;12.066;2023-02-22T11:31:46;96147.75;;;16.92;51.78
21821;BME280;11073;48.586;12.066;2023-02-22T11:34:38;96143.56;;;16.70;50.65
21821;BME280;11073;48.586;12.066;2023-02-22T11:37:33;96138.06;;;16.31;50.54
21821;BME280;11073;48.586;12.066;2023-02-22T11:40:24;96134.19;;;16.37;51.29
21821;BME280;11073;48.586;12.066;2023-02-22T11:43:17;96128.25;;;16.69;51.21
21821;BME280;11073;48.586;12.066;2023-02-22T11:46:10;96133.19;;;17.01;50.81
21821;BME280;11073;48.586;12.066;2023-02-22T11:49:03;96128.19;;;17.37;50.26
21821;BME280;11073;48.586;12.066;2023-02-22T11:52:09;96118.69;;;17.30;49.40
21821;BME280;11073;48.586;12.066;2023-02-22T11:55:12;96123.09;;;17.55;49.04
21821;BME280;11073;48.586;12.066;2023-02-22T11:58:34;96124.66;;;17.90;49.16
21821;BME280;11073;48.586;12.066;2023-02-22T12:01:35;96121.00;;;18.18;48.59
21821;BME280;11073;48.586;12.066;2023-02-22T12:08:03;96120.41;;;18.59;47.54
21821;BME280;11073;48.586;12.066;2023-02-22T12:11:12;96107.22;;;18.42;46.76
21821;BME280;11073;48.586;12.066;2023-02-22T12:14:13;96111.06;;;18.60;46.73
21821;BME280;11073;48.586;12.066;2023-02-22T12:17:17;96103.63;;;18.66;46.81
21821;BME280;11073;48.586;12.066;2023-02-22T12:20:16;96112.16;;;19.29;46.05
21821;BME280;11073;48.586;12.066;2023-02-22T12:23:15;96105.31;;;19.73;45.02
21821;BME280;11073;48.586;12.066;2023-02-22T12:26:13;96103.75;;;19.53;44.25
21821;BME280;11073;48.586;12.066;2023-02-22T12:29:08;96100.47;;;19.38;44.34
21821;BME280;11073;48.586;12.066;2023-02-22T12:32:03;96091.19;;;19.66;43.81
21821;BME280;11073;48.586;12.066;2023-02-22T12:34:57;96092.03;;;19.48;43.73
21821;BME280;11073;48.586;12.066;2023-02-22T12:37:52;96085.09;;;19.23;43.84
21821;BME280;11073;48.586;12.066;2023-02-22T12:40:45;96092.88;;;19.48;44.15
21821;BME280;11073;48.586;12.066;2023-02-22T12:43:40;96092.91;;;19.76;43.57
21821;BME280;11073;48.586;12.066;2023-02-22T12:46:36;96077.88;;;20.37;43.42
21821;BME280;11073;48.586;12.066;2023-02-22T12:49:30;96085.78;;;20.52;42.28
21821;BME280;11073;48.586;12.066;2023-02-22T12:52:33;96093.75;;;20.26;42.12
21821;BME280;11073;48.586;12.066;2023-02-22T12:55:29;96084.78;;;20.34;41.95
21821;BME280;11073;48.586;12.066;2023-02-22T12:58:23;96070.13;;;20.75;41.99
21821;BME280;11073;48.586;12.066;2023-02-22T13:01:17;96078.38;;;20.98;41.11
21821;BME280;11073;48.586;12.066;2023-02-22T13:04:08;96072.78;;;21.11;40.74
21821;BME280;11073;48.586;12.066;2023-02-22T13:07:15;96073.19;;;20.96;40.54
21821;BME280;11073;48.586;12.066;2023-02-22T13:10:27;96060.69;;;21.21;40.48
21821;BME280;11073;48.586;12.066;2023-02-22T13:13:25;96068.78;;;21.40;39.63
21821;BME280;11073;48.586;12.066;2023-02-22T13:16:25;96065.72;;;21.50;39.57
21821;BME280;11073;48.586;12.066;2023-02-22T13:19:32;96062.59;;;21.74;39.43
21821;BME280;11073;48.586;12.066;2023-02-22T13:22:33;96059.63;;;21.62;39.07
21821;BME280;11073;48.586;12.066;2023-02-22T13:25:28;96059.63;;;21.62;38.70
21821;BME280;11073;48.586;12.066;2023-02-22T13:28:23;96060.47;;;21.71;39.16
21821;BME280;11073;48.586;12.066;2023-02-22T13:31:30;96052.03;;;21.67;38.72
21821;BME280;11073;48.586;12.066;2023-02-22T13:34:42;96050.69;;;22.05;39.11
21821;BME280;11073;48.586;12.066;2023-02-22T13:37:54;96055.28;;;22.52;38.58
21821;BME280;11073;48.586;12.066;2023-02-22T13:41:02;96051.41;;;22.36;37.84
21821;BME280;11073;48.586;12.066;2023-02-22T13:44:27;96042.63;;;22.17;37.90
21821;BME280;11073;48.586;12.066;2023-02-22T13:47:34;96040.88;;;22.38;37.81
21821;BME280;11073;48.586;12.066;2023-02-22T13:50:42;96042.31;;;22.44;37.44
21821;BME280;11073;48.586;12.066;2023-02-22T13:53:46;96042.00;;;22.37;37.21
21821;BME280;11073;48.586;12.066;2023-02-22T13:56:41;96034.75;;;21.84;37.58
21821;BME280;11073;48.586;12.066;2023-02-22T13:59:32;96034.13;;;21.96;37.54
21821;BME280;11073;48.586;12.066;2023-02-22T14:02:33;96030.69;;;21.82;37.74
21821;BME280;11073;48.586;12.066;2023-02-22T14:05:49;96027.63;;;21.43;37.86
21821;BME280;11073;48.586;12.066;2023-02-22T14:08:45;96030.38;;;21.12;37.91
21821;BME280;11073;48.586;12.066;2023-02-22T14:11:44;96020.84;;;21.50;38.37
21821;BME280;11073;48.586;12.066;2023-02-22T14:14:33;96027.41;;;21.71;37.86
21821;BME280;11073;48.586;12.066;2023-02-22T14:17:33;96023.56;;;21.81;37.89
21821;BME280;11073;48.586;12.066;2023-02-22T14:20:27;96022.56;;;21.68;37.94
21821;BME280;11073;48.586;12.066;2023-02-22T14:23:33;96022.13;;;21.92;38.60
21821;BME280;11073;48.586;12.066;2023-02-22T14:26:26;96013.38;;;21.98;38.47
21821;BME280;11073;48.586;12.066;2023-02-22T14:29:17;96018.22;;;21.84;38.06
21821;BME280;11073;48.586;12.066;2023-02-22T14:32:08;96020.59;;;21.68;38.36
21821;BME280;11073;48.586;12.066;2023-02-22T14:35:02;96016.84;;;21.64;38.73
21821;BME280;11073;48.586;12.066;2023-02-22T14:38:15;96020.84;;;21.50;38.52
21821;BME280;11073;48.586;12.066;2023-02-22T14:41:06;96014.44;;;21.63;38.92
21821;BME280;11073;48.586;12.066;2023-02-22T14:43:57;96014.28;;;21.59;38.82
21821;BME280;11073;48.586;12.066;2023-02-22T14:46:47;96021.88;;;21.23;38.72
21821;BME280;11073;48.586;12.066;2023-02-22T14:49:39;96011.81;;;20.87;38.95
21821;BME280;11073;48.586;12.066;2023-02-22T14:52:35;96011.09;;;20.36;39.88
21821;BME280;11073;48.586;12.066;2023-02-22T14:55:29;96014.41;;;20.11;40.03
21821;BME280;11073;48.586;12.066;2023-02-22T14:58:22;96003.06;;;20.26;40.27
21821;BME280;11073;48.586;12.066;2023-02-22T15:01:31;96010.66;;;20.43;40.54
21821;BME280;11073;48.586;12.066;2023-02-22T15:04:36;96001.53;;;19.98;40.37
21821;BME280;11073;48.586;12.066;2023-02-22T15:07:29;96001.78;;;19.60;40.86
21821;BME280;11073;48.586;12.066;2023-02-22T15:10:24;95984.59;;;19.13;41.43
21821;BME280;11073;48.586;12.066;2023-02-22T15:13:17;95996.56;;;19.04;42.05
21821;BME280;11073;48.586;12.066;2023-02-22T15:16:10;95989.25;;;18.99;42.16
21821;BME280;11073;48.586;12.066;2023-02-22T15:19:03;95997.84;;;18.79;42.43
21821;BME280;11073;48.586;12.066;2023-02-22T15:21:56;95985.28;;;18.59;42.70
21821;BME280;11073;48.586;12.066;2023-02-22T15:24:55;95985.78;;;18.28;43.06